createdAt,value
2018-06-30T00:59:36.847Z,8.70
2018-06-30T01:00:57.792Z,7.70
2018-06-30T01:01:36.739Z,6.80
2018-06-30T01:02:36.751Z,7.10
2018-06-30T01:03:38.809Z,6.80
2018-06-30T01:04:36.745Z,7.80
2018-06-30T01:05:36.770Z,7.50
2018-06-30T01:06:36.637Z,6.50
2018-06-30T01:07:43.649Z,7.10
2018-06-30T02:34:51.311Z,7.60
2018-06-30T02:35:51.243Z,6.00
2018-06-30T02:36:51.225Z,7.10
2018-06-30T02:37:51.200Z,5.50
2018-06-30T02:38:51.248Z,5.60
2018-06-30T02:39:51.162Z,5.90
2018-06-30T02:40:51.161Z,5.40
2018-06-30T02:41:51.118Z,5.90
2018-06-30T02:42:51.083Z,5.70
2018-06-30T02:43:51.078Z,5.80
2018-06-30T02:44:51.047Z,4.90
2018-06-30T02:45:51.093Z,5.10
2018-06-30T02:46:50.995Z,4.80
2018-06-30T02:47:51.104Z,5.30
2018-06-30T02:48:50.965Z,4.90
2018-06-30T02:49:51.015Z,6.20
2018-06-30T02:50:50.925Z,5.90
2018-06-30T02:51:51.957Z,5.50
2018-06-30T02:52:50.877Z,6.10
2018-06-30T02:53:51.991Z,5.20
2018-06-30T02:54:50.829Z,4.60
2018-06-30T02:55:50.843Z,4.50
2018-06-30T02:56:50.801Z,4.30
2018-06-30T02:57:50.901Z,5.30
2018-06-30T02:58:50.726Z,6.10
2018-06-30T02:59:50.763Z,7.00
2018-06-30T03:00:50.690Z,6.10
2018-06-30T03:01:50.783Z,7.00
2018-06-30T03:02:50.648Z,6.80
2018-06-30T03:03:50.699Z,7.20
2018-06-30T03:04:50.596Z,8.90
2018-06-30T03:05:51.633Z,7.30
2018-06-30T03:06:50.555Z,6.20
2018-06-30T03:07:50.537Z,7.20
2018-06-30T03:08:50.520Z,6.50
2018-06-30T03:09:50.537Z,6.70
2018-06-30T03:10:50.472Z,7.00
2018-06-30T03:11:50.546Z,7.50
2018-06-30T03:12:50.420Z,8.10
2018-06-30T03:13:50.454Z,7.50
2018-06-30T03:14:50.384Z,7.90
2018-06-30T03:15:50.496Z,6.50
2018-06-30T03:16:50.339Z,7.00
2018-06-30T03:17:51.410Z,6.40
2018-06-30T03:18:50.289Z,6.80
2018-06-30T03:19:50.287Z,7.40
2018-06-30T03:20:50.243Z,7.90
2018-06-30T03:21:50.226Z,7.80
2018-06-30T03:22:50.207Z,7.20
2018-06-30T03:23:50.179Z,6.60
2018-06-30T03:24:50.156Z,6.90
2018-06-30T03:25:50.133Z,5.80
2018-06-30T03:26:50.113Z,6.70
2018-06-30T03:27:51.094Z,6.70
2018-06-30T03:28:50.063Z,6.20
2018-06-30T03:29:50.057Z,5.10
2018-06-30T03:30:50.027Z,4.30
2018-06-30T03:31:50.037Z,5.70
2018-06-30T03:32:50.004Z,5.40
2018-06-30T03:33:49.995Z,6.50
2018-06-30T03:34:49.948Z,6.20
2018-06-30T03:35:54.527Z,5.50
2018-06-30T03:36:49.879Z,5.20
2018-06-30T03:37:49.883Z,5.80
2018-06-30T03:38:49.854Z,4.90
2018-06-30T03:39:49.833Z,4.90
2018-06-30T03:40:49.806Z,5.90
2018-06-30T03:41:49.782Z,5.00
2018-06-30T03:42:49.748Z,6.30
2018-06-30T03:43:49.777Z,5.60
2018-06-30T03:44:49.731Z,5.60
2018-06-30T03:45:49.696Z,7.30
2018-06-30T03:47:35.683Z,6.50
2018-06-30T03:48:35.624Z,5.60
2018-06-30T03:49:35.587Z,5.80
2018-06-30T03:50:35.575Z,5.50
2018-06-30T03:51:35.528Z,5.50
2018-06-30T03:52:35.516Z,5.10
2018-06-30T03:53:35.490Z,5.20
2018-06-30T03:54:35.470Z,5.80
2018-06-30T03:55:35.468Z,5.40
2018-06-30T03:56:48.155Z,5.00
2018-06-30T03:57:35.430Z,5.30
2018-06-30T03:58:36.510Z,6.00
2018-06-30T03:59:35.662Z,5.50
2018-06-30T04:00:48.203Z,4.60
2018-06-30T04:01:35.326Z,4.00
2018-06-30T04:02:36.514Z,4.30
2018-06-30T04:03:35.275Z,7.40
2018-06-30T04:06:39.375Z,5.70
